Belfast Municipal (BST)
Belfast, ME
Field Elevation: 198
Lat: 44°24.56N  Long: 69°00.71W
CTAF/Unicom Freq: 122.9750
   
     For Weather-by-Phone, call 207-930-7071
Weather Advisories
2018-02-24   15:24 Z
Altimeter 30.03" Hg
Wind 340° @ 9 KT
Gusts 19 KT
Visibility 10 SM
Ceiling BKN044 OVC054
Temperature 7° C (45° F)
Dewpoint -1° C (30° F)
Relative Humidity 56%
Density Altitude --
Condensation Altitude 4,400 feet
Wind Chill: 4° C (39° F)
Wind and Runways
Indicated Runway = 33
Headwind = 9 kt
Crosswind = 2 kt
History
 
 
 
More Info
NOAA Forecast
 
 
About Us
Belfort Instrument
 
 
FAA Disclaimer: The data displayed is for advisory purposes only and is not to be used for flight planning or operations. For official data, please call 207-930-7071 to hear the current automated AWOS voice message.
  METAR BST 241524Z AUTO 34009G19KT 10 SM BKN044 OVC054 07/M01 A3003